Time;durP1;ratioP1;P1;durP2;ratioP2;P2;SDS_P1;SDS_P2;PMS_P1;PMS_P2;Temp;Humidity;BMP_temperature;BMP_pressure;BME280_temperature;BME280_humidity;BME280_pressure;Samples;Min_cycle;Max_cycle;Signal;HPM_P1;HPM_P2
2022/03/30 00:01:17;;;;;;;43.57;21.57;;;;;;;5.27;100.00;99550.38;10253717;28;20227;-73
2022/03/30 00:06:20;;;;;;;41.00;20.10;;;;;;;5.17;100.00;99549.56;10254063;28;20232;-73
2022/03/30 00:11:24;;;;;;;40.30;20.43;;;;;;;5.17;100.00;99556.41;10255444;28;20597;-69
2022/03/30 00:16:28;;;;;;;49.33;22.80;;;;;;;5.18;100.00;99558.13;10256607;28;20224;-71
2022/03/30 00:21:31;;;;;;;40.20;20.87;;;;;;;5.22;100.00;99558.13;10256454;28;20240;-68
2022/03/30 00:26:35;;;;;;;49.57;22.17;;;;;;;5.17;100.00;99554.72;10258289;28;20548;-70
2022/03/30 00:31:40;;;;;;;40.10;21.23;;;;;;;5.12;100.00;99553.00;10256327;28;20220;-70
2022/03/30 00:36:43;;;;;;;45.77;22.83;;;;;;;5.18;100.00;99555.53;10256161;28;20224;-69
2022/03/30 00:41:47;;;;;;;42.57;22.17;;;;;;;5.11;100.00;99554.69;10256207;28;20234;-72
2022/03/30 00:46:51;;;;;;;44.70;21.23;;;;;;;5.04;100.00;99554.72;10256242;28;20220;-70
2022/03/30 00:51:55;;;;;;;40.57;21.20;;;;;;;5.04;100.00;99549.59;10255387;29;20552;-71
2022/03/30 00:56:58;;;;;;;41.77;21.60;;;;;;;4.89;100.00;99549.56;10258818;28;20323;-73
2022/03/30 01:02:04;;;;;;;44.83;23.30;;;;;;;4.85;100.00;99547.88;10255639;28;20227;-71
2022/03/30 01:07:07;;;;;;;47.00;23.00;;;;;;;4.88;100.00;99543.59;10255657;29;20226;-71
2022/03/30 01:12:12;;;;;;;46.83;22.30;;;;;;;4.90;100.00;99546.16;10260432;28;20228;-73
2022/03/30 01:17:21;;;;;;;48.30;24.73;;;;;;;4.90;100.00;99543.59;10263266;28;20223;-75
2022/03/30 01:22:26;;;;;;;49.27;22.50;;;;;;;4.80;100.00;99535.03;10262955;28;20216;-75
2022/03/30 01:27:30;;;;;;;44.23;23.17;;;;;;;4.75;100.00;99531.59;10264577;28;20220;-74
2022/03/30 01:32:34;;;;;;;49.17;21.17;;;;;;;4.70;100.00;99529.03;10262560;28;20550;-71
2022/03/30 01:37:39;;;;;;;41.43;21.10;;;;;;;4.72;100.00;99529.91;10262484;28;20221;-69
2022/03/30 01:42:42;;;;;;;42.83;21.53;;;;;;;4.69;100.00;99526.47;10262520;28;20228;-66
2022/03/30 01:47:52;;;;;;;41.37;22.63;;;;;;;4.73;100.00;99516.19;10262017;28;20231;-68
2022/03/30 01:52:56;;;;;;;43.87;22.13;;;;;;;4.77;100.00;99514.47;10261947;28;20553;-66
2022/03/30 01:58:01;;;;;;;49.83;22.37;;;;;;;4.62;100.00;99512.75;10262723;28;20242;-71
2022/03/30 02:03:05;;;;;;;45.23;22.83;;;;;;;4.63;100.00;99506.75;10261701;28;20228;-65
2022/03/30 02:08:10;;;;;;;41.57;23.63;;;;;;;4.56;100.00;99497.34;10261157;28;20712;-67
2022/03/30 02:13:13;;;;;;;42.57;21.60;;;;;;;4.55;100.00;99493.06;10261108;28;20250;-65
2022/03/30 02:18:18;;;;;;;44.27;22.93;;;;;;;4.56;100.00;99491.34;10260973;28;20224;-71
2022/03/30 02:23:22;;;;;;;42.57;21.83;;;;;;;4.57;100.00;99486.19;10260895;28;20231;-67
2022/03/30 02:28:25;;;;;;;44.73;23.10;;;;;;;4.67;100.00;99481.94;10261086;28;20228;-67
2022/03/30 02:33:29;;;;;;;41.90;21.43;;;;;;;4.62;100.00;99479.34;10260466;28;20238;-64
2022/03/30 02:38:33;;;;;;;47.87;23.80;;;;;;;4.67;100.00;99477.66;10260273;28;20232;-67
2022/03/30 02:43:37;;;;;;;45.77;21.87;;;;;;;4.57;100.00;99473.34;10260393;28;20226;-66
2022/03/30 02:48:40;;;;;;;42.70;22.73;;;;;;;4.57;100.00;99464.81;10259637;28;20224;-73
2022/03/30 02:53:45;;;;;;;42.73;22.20;;;;;;;4.45;100.00;99470.78;10259754;28;20554;-66
2022/03/30 02:58:48;;;;;;;47.67;22.70;;;;;;;4.50;100.00;99471.63;10260012;28;20228;-68
2022/03/30 03:03:51;;;;;;;44.07;22.57;;;;;;;4.41;100.00;99468.22;10259249;29;20340;-65
2022/03/30 03:08:57;;;;;;;45.77;22.77;;;;;;;4.43;100.00;99453.69;10258976;29;20294;-67
2022/03/30 03:14:05;;;;;;;44.37;22.97;;;;;;;4.36;100.00;99462.25;10258513;28;20274;-66
2022/03/30 03:19:08;;;;;;;51.73;22.87;;;;;;;4.29;100.00;99476.78;10258656;28;20228;-69
2022/03/30 03:24:12;;;;;;;47.30;22.07;;;;;;;4.17;100.00;99460.50;10258374;28;20307;-65
2022/03/30 03:29:16;;;;;;;48.00;23.40;;;;;;;4.17;100.00;99468.22;10259378;28;20220;-67
2022/03/30 03:34:19;;;;;;;46.37;22.13;;;;;;;4.20;100.00;99457.94;10257733;28;20226;-67
2022/03/30 03:39:23;;;;;;;44.67;22.37;;;;;;;3.98;100.00;99461.34;10257932;29;20246;-70
2022/03/30 03:44:27;;;;;;;47.27;24.20;;;;;;;4.06;100.00;99460.50;10258026;28;20243;-67
2022/03/30 03:49:30;;;;;;;47.63;21.37;;;;;;;4.02;100.00;99463.06;10258488;29;20220;-68
2022/03/30 03:54:35;;;;;;;52.77;25.13;;;;;;;4.04;100.00;99461.38;10257294;28;20558;-69
2022/03/30 03:59:38;;;;;;;53.07;26.07;;;;;;;4.00;100.00;99457.94;10259568;28;20291;-69
2022/03/30 04:04:41;;;;;;;46.67;25.23;;;;;;;3.96;100.00;99453.66;10263791;28;20263;-71
2022/03/30 04:09:46;;;;;;;51.93;24.83;;;;;;;3.91;100.00;99451.91;10255664;28;20239;-73
2022/03/30 04:14:50;;;;;;;52.23;24.73;;;;;;;3.74;100.00;99453.59;10255772;28;20220;-71
2022/03/30 04:19:54;;;;;;;51.90;25.93;;;;;;;3.58;100.00;99457.81;10256498;28;20232;-71
2022/03/30 04:24:58;;;;;;;53.87;24.97;;;;;;;3.50;100.00;99460.34;10254970;28;20274;-72
2022/03/30 04:30:02;;;;;;;54.90;26.03;;;;;;;3.45;100.00;99466.34;10255005;28;20219;-71
2022/03/30 04:35:06;;;;;;;60.77;25.80;;;;;;;3.40;100.00;99473.13;10253949;28;20234;-70
2022/03/30 04:40:12;;;;;;;57.87;25.97;;;;;;;3.30;100.00;99462.00;9909239;28;10000348;-71
2022/03/30 04:45:16;;;;;;;53.07;24.20;;;;;;;3.29;100.00;99467.13;10252743;28;20278;-76
2022/03/30 04:50:19;;;;;;;51.33;24.60;;;;;;;3.27;100.00;99474.81;10258579;28;20609;-71
2022/03/30 04:55:24;;;;;;;59.60;26.60;;;;;;;3.30;100.00;99473.94;10258135;28;20606;-70
2022/03/30 05:00:27;;;;;;;52.40;26.43;;;;;;;3.25;100.00;99467.94;10256521;28;20338;-73
2022/03/30 05:05:30;;;;;;;52.53;24.70;;;;;;;3.25;100.00;99465.38;10225182;28;1092784;-73
2022/03/30 05:10:36;;;;;;;53.50;25.10;;;;;;;3.20;100.00;99467.06;10260272;28;20232;-73
2022/03/30 05:15:39;;;;;;;52.30;24.37;;;;;;;3.25;100.00;99468.81;10260166;29;20546;-73
2022/03/30 05:20:44;;;;;;;49.70;24.17;;;;;;;3.30;100.00;99477.38;10259383;29;20244;-68
2022/03/30 05:25:48;;;;;;;56.03;24.37;;;;;;;3.37;100.00;99475.69;10259716;28;20622;-68
2022/03/30 05:30:51;;;;;;;46.97;25.80;;;;;;;3.56;100.00;99480.03;10259684;28;20204;-73
2022/03/30 05:35:55;;;;;;;51.27;26.10;;;;;;;3.72;100.00;99471.56;10261847;28;20196;-72
2022/03/30 05:40:59;;;;;;;55.47;27.43;;;;;;;3.81;100.00;99481.00;10259216;28;20230;-70
2022/03/30 05:46:03;;;;;;;52.03;24.27;;;;;;;3.93;100.00;99481.88;10258994;28;20707;-69
2022/03/30 05:51:06;;;;;;;56.87;28.03;;;;;;;3.96;100.00;99487.00;10258331;28;20254;-66
2022/03/30 05:56:11;;;;;;;58.47;27.23;;;;;;;4.09;100.00;99486.16;10258174;28;20199;-63
2022/03/30 06:01:14;;;;;;;51.03;25.30;;;;;;;4.19;100.00;99493.06;10258436;28;20216;-63
2022/03/30 06:06:18;;;;;;;55.90;25.13;;;;;;;4.45;100.00;99472.53;10259189;28;20307;-64
2022/03/30 06:11:23;;;;;;;47.57;23.47;;;;;;;4.67;100.00;99476.78;10257902;28;20210;-71
2022/03/30 06:16:26;;;;;;;49.40;22.73;;;;;;;4.96;100.00;99474.16;10257807;28;20541;-70
2022/03/30 06:21:31;;;;;;;50.23;22.17;;;;;;;5.09;100.00;99468.97;10257116;28;20216;-69
2022/03/30 06:26:35;;;;;;;54.50;24.47;;;;;;;5.17;100.00;99476.69;10257447;28;20221;-70
2022/03/30 06:31:39;;;;;;;45.50;22.30;;;;;;;5.27;98.33;99466.38;10256483;28;20224;-69
2022/03/30 06:36:43;;;;;;;50.70;21.73;;;;;;;5.55;97.82;99467.13;10256691;29;20226;-73
2022/03/30 06:41:48;;;;;;;42.67;21.13;;;;;;;5.66;93.94;99457.63;10255325;28;20286;-72
2022/03/30 06:46:51;;;;;;;43.73;20.63;;;;;;;5.70;92.89;99467.03;10255190;29;20294;-69
2022/03/30 06:51:55;;;;;;;43.97;20.57;;;;;;;5.83;90.01;99467.00;10255488;29;20222;-69
2022/03/30 06:56:59;;;;;;;46.27;22.60;;;;;;;5.93;89.08;99467.81;10254753;28;20216;-67
2022/03/30 07:02:03;;;;;;;39.60;18.57;;;;;;;6.11;85.08;99469.41;10254488;29;20724;-69
2022/03/30 07:12:29;;;;;;;33.07;16.37;;;;;;;6.47;83.08;99477.72;10252038;29;20220;-72
2022/03/30 07:17:33;;;;;;;31.07;16.37;;;;;;;6.40;80.46;99486.34;10255245;29;20554;-65
2022/03/30 07:22:39;;;;;;;46.23;19.13;;;;;;;6.33;80.60;99481.28;10253594;28;20626;-70
2022/03/30 07:27:48;;;;;;;38.90;18.87;;;;;;;6.46;81.46;99481.16;10254241;28;20231;-65
2022/03/30 07:32:53;;;;;;;38.43;16.43;;;;;;;6.68;79.67;99489.56;10252099;29;20226;-67
2022/03/30 07:37:57;;;;;;;31.97;14.33;;;;;;;6.86;78.09;99494.56;10253785;28;20564;-66
2022/03/30 07:43:02;;;;;;;30.70;14.17;;;;;;;7.00;76.16;99492.72;10253425;28;20228;-66
2022/03/30 07:48:08;;;;;;;27.20;14.10;;;;;;;7.07;74.85;99490.06;10253289;29;20212;-67
2022/03/30 07:53:12;;;;;;;30.70;14.70;;;;;;;7.17;75.21;99484.81;10253927;28;20546;-70
2022/03/30 07:58:17;;;;;;;31.27;12.27;;;;;;;7.40;74.23;99488.88;10253448;28;20526;-67
2022/03/30 08:03:20;;;;;;;23.73;10.30;;;;;;;7.43;72.35;99490.53;10249330;29;20238;-67
2022/03/30 08:08:24;;;;;;;23.93;11.03;;;;;;;7.57;70.49;99498.97;10253501;28;20220;-70
2022/03/30 08:13:29;;;;;;;26.13;9.63;;;;;;;7.70;69.71;99500.53;10252732;28;20239;-67
2022/03/30 08:18:32;;;;;;;18.60;7.20;;;;;;;7.84;68.45;99489.16;10251022;29;20745;-66
2022/03/30 08:23:36;;;;;;;17.77;6.80;;;;;;;8.05;67.12;99495.75;10252838;29;20216;-70
2022/03/30 08:28:41;;;;;;;16.27;6.20;;;;;;;8.17;66.10;99488.69;10252964;29;20262;-68
2022/03/30 08:33:45;;;;;;;17.80;6.60;;;;;;;8.39;65.20;99496.19;10252639;28;20387;-69
2022/03/30 08:38:48;;;;;;;19.53;5.67;;;;;;;8.42;61.60;99490.94;10252058;29;20228;-67
2022/03/30 08:43:53;;;;;;;18.10;5.93;;;;;;;8.42;62.37;99488.38;10249550;29;20224;-67
2022/03/30 08:48:57;;;;;;;14.93;6.53;;;;;;;8.39;60.40;99483.25;10252435;28;20666;-67
2022/03/30 08:54:00;;;;;;;15.60;6.13;;;;;;;8.74;59.48;99488.69;10251260;28;20305;-68
2022/03/30 08:59:06;;;;;;;15.73;5.57;;;;;;;8.80;57.87;99486.00;10249983;29;20307;-68
2022/03/30 09:04:12;;;;;;;15.70;5.20;;;;;;;8.91;57.06;99482.34;10252024;28;20228;-66
2022/03/30 09:09:18;;;;;;;10.63;4.33;;;;;;;9.20;56.23;99484.41;10251480;29;20775;-67
2022/03/30 09:14:26;;;;;;;13.97;5.60;;;;;;;9.15;57.12;99488.81;10251437;29;20231;-71
2022/03/30 09:19:36;;;;;;;14.83;4.50;;;;;;;9.20;56.66;99484.41;10251436;29;20236;-69
2022/03/30 09:24:41;;;;;;;15.83;5.23;;;;;;;9.34;56.05;99483.28;10250409;29;20220;-66
2022/03/30 09:29:46;;;;;;;15.37;4.83;;;;;;;9.45;54.84;99471.84;10253268;28;20224;-68
2022/03/30 09:34:59;;;;;;;10.13;3.90;;;;;;;9.43;54.42;99473.59;10258628;28;20307;-73
2022/03/30 09:40:10;;;;;;;11.20;4.47;;;;;;;9.63;53.59;99474.09;10259172;29;20295;-70
2022/03/30 09:45:29;;;;;;;18.83;4.73;;;;;;;9.63;52.84;99466.31;10258730;28;20556;-73
2022/03/30 09:50:32;;;;;;;12.40;4.37;;;;;;;9.69;52.57;99471.34;10258708;29;20220;-73
2022/03/30 09:55:35;;;;;;;12.90;4.80;;;;;;;10.66;50.73;99463.09;10258865;29;20558;-71
2022/03/30 10:00:41;;;;;;;10.10;4.50;;;;;;;10.41;50.91;99464.56;10258134;28;20548;-73
2022/03/30 10:05:45;;;;;;;9.87;4.50;;;;;;;10.21;50.96;99465.03;10257777;29;20235;-71
2022/03/30 10:10:48;;;;;;;11.23;4.23;;;;;;;10.17;50.82;99458.22;10258563;29;20672;-72
2022/03/30 10:15:53;;;;;;;10.50;4.57;;;;;;;11.52;48.32;99453.84;10260663;28;20665;-72
2022/03/30 10:21:07;;;;;;;17.00;4.53;;;;;;;11.18;48.43;99458.22;10260294;28;20228;-72
2022/03/30 10:26:19;;;;;;;14.03;4.60;;;;;;;10.79;48.82;99461.00;10261764;29;20220;-70
2022/03/30 10:31:26;;;;;;;8.90;3.70;;;;;;;10.64;48.23;99446.69;10260216;29;20862;-72
2022/03/30 10:36:32;;;;;;;10.07;3.50;;;;;;;11.34;46.77;99449.13;10260223;29;20232;-70
2022/03/30 10:41:48;;;;;;;10.63;4.27;;;;;;;10.83;47.05;99447.94;10259669;28;20220;-74
2022/03/30 10:47:09;;;;;;;12.77;4.17;;;;;;;11.29;47.06;99448.41;10259283;28;20226;-72
2022/03/30 10:52:37;;;;;;;11.37;4.40;;;;;;;13.11;45.08;99426.22;10259596;29;20220;-69
2022/03/30 10:57:44;;;;;;;12.47;3.63;;;;;;;13.10;44.87;99432.31;10259001;29;20314;-72
2022/03/30 11:02:50;;;;;;;12.23;4.27;;;;;;;12.88;45.28;99438.28;10257853;29;20251;-70
2022/03/30 11:07:54;;;;;;;12.53;4.33;;;;;;;13.02;45.97;99436.94;9913731;28;10000405;-70
2022/03/30 11:13:05;;;;;;;13.60;4.37;;;;;;;12.53;46.96;99440.31;10255012;29;20224;-72
2022/03/30 11:18:21;;;;;;;11.40;3.80;;;;;;;12.18;48.11;99430.16;10255532;28;20295;-70
2022/03/30 11:23:28;;;;;;;9.73;4.53;;;;;;;12.15;46.80;99434.66;10255083;28;20310;-71
2022/03/30 11:28:36;;;;;;;14.07;4.70;;;;;;;11.87;47.21;99433.78;10216538;29;20219;-72
2022/03/30 11:33:42;;;;;;;9.33;4.83;;;;;;;11.62;47.45;99437.06;10216085;29;20227;-71
2022/03/30 11:38:49;;;;;;;12.37;5.00;;;;;;;11.79;48.19;99435.72;10254393;29;20227;-70
2022/03/30 11:49:15;;;;;;;13.53;4.53;;;;;;;14.35;44.16;99418.88;10254525;29;20562;-70
2022/03/30 11:54:21;;;;;;;12.63;4.63;;;;;;;14.42;42.23;99422.94;10253307;28;20563;-68
2022/03/30 11:59:24;;;;;;;13.27;4.50;;;;;;;12.75;44.08;99412.66;10254121;29;20228;-72
2022/03/30 12:04:32;;;;;;;10.67;4.80;;;;;;;13.01;44.61;99424.78;10256724;29;20275;-71
2022/03/30 12:09:44;;;;;;;8.83;5.00;;;;;;;14.33;41.48;99410.25;10256972;29;20299;-69
2022/03/30 12:14:56;;;;;;;14.80;4.63;;;;;;;15.76;39.91;99402.22;10256726;28;20319;-71
2022/03/30 12:20:07;;;;;;;16.27;4.87;;;;;;;14.32;41.88;99406.81;10256657;29;20298;-72
2022/03/30 12:25:18;;;;;;;9.27;4.30;;;;;;;14.15;42.51;99413.59;10255962;29;20668;-71
2022/03/30 12:30:22;;;;;;;26.47;6.13;;;;;;;13.39;43.12;99415.66;10256373;29;20296;-70
2022/03/30 12:35:33;;;;;;;8.37;4.13;;;;;;;13.08;43.92;99412.44;10256056;29;20242;-70
2022/03/30 12:40:39;;;;;;;11.40;5.30;;;;;;;12.84;44.12;99406.28;10256019;29;20224;-70
2022/03/30 12:45:53;;;;;;;13.13;4.30;;;;;;;12.92;43.12;99404.28;10256162;29;20236;-70
2022/03/30 12:51:01;;;;;;;15.57;5.33;;;;;;;12.62;43.34;99403.56;10255929;29;20562;-71
2022/03/30 12:56:13;;;;;;;10.83;4.20;;;;;;;12.25;43.72;99416.06;10255475;28;20303;-71
2022/03/30 13:01:31;;;;;;;11.43;4.27;;;;;;;11.94;43.51;99414.50;10255281;29;20677;-70
2022/03/30 13:06:36;;;;;;;8.67;3.43;;;;;;;12.72;42.90;99406.69;10257252;28;20295;-72
2022/03/30 13:11:49;;;;;;;7.77;3.20;;;;;;;12.57;43.50;99404.63;10263782;29;20227;-69
2022/03/30 13:16:57;;;;;;;9.77;3.30;;;;;;;12.92;43.18;99403.41;10263104;29;20303;-69
2022/03/30 13:22:02;;;;;;;7.53;2.87;;;;;;;12.31;42.13;99405.47;10262713;29;20250;-69
2022/03/30 13:27:07;;;;;;;16.50;5.17;;;;;;;11.91;43.37;99406.81;10262324;29;20315;-70
2022/03/30 13:32:11;;;;;;;9.70;3.50;;;;;;;11.71;43.43;99412.59;10262448;29;20311;-69
2022/03/30 13:37:15;;;;;;;8.97;3.00;;;;;;;11.53;44.16;99407.88;10259316;29;20663;-70
2022/03/30 13:42:19;;;;;;;11.23;3.10;;;;;;;11.41;44.33;99403.03;10259996;29;20220;-72
2022/03/30 13:47:22;;;;;;;12.93;3.40;;;;;;;11.37;44.58;99409.25;10261025;28;20216;-69
2022/03/30 13:52:27;;;;;;;8.23;3.20;;;;;;;11.09;44.72;99405.72;10260516;28;20216;-68
2022/03/30 13:57:30;;;;;;;8.67;3.73;;;;;;;11.10;44.86;99410.84;10257718;29;20216;-69
2022/03/30 14:02:36;;;;;;;11.40;4.40;;;;;;;11.20;45.28;99403.69;10260408;28;20251;-72
2022/03/30 14:07:41;;;;;;;9.70;3.60;;;;;;;11.19;44.18;99401.94;10260103;29;20339;-66
2022/03/30 14:12:44;;;;;;;8.03;3.63;;;;;;;10.93;44.66;99405.25;10259513;28;20732;-65
2022/03/30 14:17:52;;;;;;;16.17;5.67;;;;;;;10.86;44.71;99397.66;10259387;28;20208;-67
2022/03/30 14:22:57;;;;;;;31.73;19.50;;;;;;;10.89;44.66;99393.25;10259269;29;20314;-62
2022/03/30 14:28:01;;;;;;;10.60;3.27;;;;;;;10.83;45.02;99390.84;10259211;28;20557;-63
2022/03/30 14:33:05;;;;;;;10.00;3.50;;;;;;;10.93;45.24;99392.28;10258717;28;20223;-73
2022/03/30 14:38:11;;;;;;;9.93;4.03;;;;;;;10.97;45.09;99395.66;10257322;29;20230;-69
2022/03/30 14:43:15;;;;;;;10.60;3.60;;;;;;;11.05;45.19;99381.56;10258820;28;20722;-71
2022/03/30 14:48:18;;;;;;;10.30;3.87;;;;;;;11.05;46.30;99370.31;10258797;28;20216;-71
2022/03/30 14:53:23;;;;;;;11.70;3.70;;;;;;;11.28;46.07;99367.94;10258607;28;20216;-72
2022/03/30 14:58:26;;;;;;;9.23;3.53;;;;;;;11.43;45.13;99370.94;10257119;28;20223;-73
2022/03/30 15:03:30;;;;;;;9.97;3.60;;;;;;;11.35;43.82;99364.28;10258310;28;20233;-74
2022/03/30 15:08:35;;;;;;;9.73;3.57;;;;;;;11.29;45.58;99356.63;10252764;29;20208;-64
2022/03/30 15:13:39;;;;;;;10.30;3.30;;;;;;;11.35;45.37;99365.13;10254870;29;20658;-65
2022/03/30 15:18:42;;;;;;;7.50;3.10;;;;;;;11.30;45.22;99359.19;10256500;28;20226;-66
2022/03/30 15:23:47;;;;;;;8.47;3.77;;;;;;;11.30;45.46;99350.56;10294953;28;20717;-68
2022/03/30 15:28:53;;;;;;;9.73;4.07;;;;;;;11.28;45.42;99352.34;10294589;28;20195;-72
2022/03/30 15:33:56;;;;;;;11.73;3.70;;;;;;;11.14;45.96;99357.94;10282515;28;20200;-70
2022/03/30 15:39:01;;;;;;;10.37;3.20;;;;;;;11.07;45.24;99359.00;10254826;28;20291;-70
2022/03/30 15:44:04;;;;;;;8.27;3.30;;;;;;;11.01;45.07;99356.56;10254609;28;20302;-71
2022/03/30 15:49:08;;;;;;;14.10;6.30;;;;;;;10.91;45.71;99352.53;10253196;28;20201;-69
2022/03/30 15:54:12;;;;;;;10.90;3.27;;;;;;;10.73;44.90;99355.66;10253509;28;20283;-69
2022/03/30 15:59:16;;;;;;;13.03;3.80;;;;;;;10.69;45.88;99354.00;10253348;28;20275;-69
2022/03/30 16:04:19;;;;;;;14.37;4.20;;;;;;;10.66;46.13;99363.63;9912505;28;9999819;-72
2022/03/30 16:09:24;;;;;;;10.47;3.70;;;;;;;10.53;45.67;99362.25;10253444;28;20215;-71
2022/03/30 16:14:28;;;;;;;14.17;3.37;;;;;;;10.42;47.04;99375.50;10253621;29;20220;-73
2022/03/30 16:19:33;;;;;;;8.50;3.70;;;;;;;10.29;46.66;99366.28;10253033;28;20216;-73
2022/03/30 16:24:38;;;;;;;11.63;3.23;;;;;;;10.19;45.86;99372.59;10253031;28;20338;-71
2022/03/30 16:29:42;;;;;;;8.27;3.00;;;;;;;9.99;47.15;99370.44;10254308;29;20220;-72
2022/03/30 16:34:46;;;;;;;10.90;2.77;;;;;;;9.84;47.48;99375.13;10253372;28;20674;-71
2022/03/30 16:39:51;;;;;;;9.73;3.33;;;;;;;9.82;46.99;99367.41;10253599;28;20220;-70
2022/03/30 16:44:54;;;;;;;8.93;3.17;;;;;;;9.73;47.59;99369.38;10261378;28;20845;-70
2022/03/30 16:49:58;;;;;;;9.97;2.80;;;;;;;9.61;49.38;99365.28;10260922;28;20219;-69
2022/03/30 16:55:03;;;;;;;13.37;6.13;;;;;;;9.62;48.12;99369.59;10260823;28;20222;-75
2022/03/30 17:00:12;;;;;;;9.80;3.40;;;;;;;9.49;48.48;99368.16;10261975;28;20223;-71
2022/03/30 17:05:16;;;;;;;9.50;3.00;;;;;;;9.50;49.30;99371.59;10260312;28;20228;-73
2022/03/30 17:10:21;;;;;;;9.83;3.33;;;;;;;9.47;47.78;99376.84;10260987;28;20234;-71
2022/03/30 17:15:24;;;;;;;9.87;3.37;;;;;;;9.28;48.53;99387.56;10260320;29;20242;-72
2022/03/30 17:20:28;;;;;;;10.43;4.03;;;;;;;9.07;49.54;99395.81;10260151;29;20303;-72
2022/03/30 17:25:33;;;;;;;12.70;5.73;;;;;;;9.01;51.01;99403.66;10259964;28;20242;-70
2022/03/30 17:30:37;;;;;;;57.47;25.93;;;;;;;8.75;53.12;99412.81;10262183;28;20227;-70
2022/03/30 17:35:41;;;;;;;18.47;6.40;;;;;;;8.60;54.42;99420.81;10259426;28;20590;-72
2022/03/30 17:40:46;;;;;;;11.57;5.87;;;;;;;8.55;54.94;99415.75;10259839;29;20224;-73
2022/03/30 17:45:49;;;;;;;11.07;5.17;;;;;;;8.40;55.80;99430.66;10258407;29;20228;-73
2022/03/30 17:56:20;;;;;;;14.27;5.03;;;;;;;8.27;57.51;99429.13;10247960;28;20271;-72
2022/03/30 18:01:24;;;;;;;14.90;5.53;;;;;;;8.17;58.02;99434.44;10258025;28;20236;-71
2022/03/30 18:06:27;;;;;;;13.53;6.40;;;;;;;8.10;58.67;99437.97;10257345;28;20236;-73
2022/03/30 18:11:32;;;;;;;12.13;5.47;;;;;;;7.94;59.27;99451.13;10257231;28;20216;-69
2022/03/30 18:16:56;;;;;;;14.53;7.00;;;;;;;7.86;59.80;99456.41;10255364;29;20219;-73
2022/03/30 18:22:00;;;;;;;12.37;5.83;;;;;;;7.72;60.17;99458.34;10257594;29;20212;-70
2022/03/30 18:27:05;;;;;;;10.17;4.77;;;;;;;7.68;60.16;99461.81;10260370;29;20220;-72
2022/03/30 18:32:09;;;;;;;18.77;5.30;;;;;;;7.61;60.88;99473.09;10254496;28;20230;-69
2022/03/30 18:37:12;;;;;;;14.27;5.50;;;;;;;7.48;61.35;99483.59;10256445;29;20335;-73
2022/03/30 18:42:17;;;;;;;11.20;5.27;;;;;;;7.32;62.13;99492.38;10256237;28;20294;-69
2022/03/30 18:47:21;;;;;;;7.37;3.97;;;;;;;7.28;62.35;99498.47;10255327;29;20653;-70
2022/03/30 18:52:25;;;;;;;14.93;5.57;;;;;;;7.16;62.83;99493.44;10260202;29;20220;-72
2022/03/30 18:57:30;;;;;;;10.43;5.17;;;;;;;7.01;63.03;99499.59;10259764;28;20234;-73
2022/03/30 19:02:33;;;;;;;15.50;8.10;;;;;;;6.91;63.49;99505.72;10259762;28;20240;-70
2022/03/30 19:07:36;;;;;;;9.33;5.17;;;;;;;6.70;63.40;99509.34;10258261;28;20232;-70
2022/03/30 19:12:41;;;;;;;12.33;5.40;;;;;;;6.63;63.83;99505.09;10258795;28;20556;-70
2022/03/30 19:17:45;;;;;;;10.70;5.10;;;;;;;6.54;64.13;99512.06;10258599;29;20220;-72
2022/03/30 19:22:48;;;;;;;12.60;4.73;;;;;;;6.51;64.91;99509.47;10258132;28;20204;-73
2022/03/30 19:27:54;;;;;;;13.63;5.87;;;;;;;6.49;64.44;99518.97;10258252;28;20684;-69
2022/03/30 19:32:58;;;;;;;14.50;5.17;;;;;;;6.42;64.23;99528.44;9914354;28;10000092;-70
2022/03/30 19:38:02;;;;;;;10.67;5.17;;;;;;;6.30;64.83;99531.09;10255577;29;20196;-73
2022/03/30 19:43:08;;;;;;;11.87;5.73;;;;;;;6.28;64.89;99525.09;10253897;29;20196;-71
2022/03/30 19:48:14;;;;;;;10.80;4.80;;;;;;;6.15;65.04;99533.78;10252014;29;20208;-71
2022/03/30 19:53:18;;;;;;;10.13;4.80;;;;;;;6.10;64.80;99522.66;10253776;28;20188;-71
2022/03/30 19:58:23;;;;;;;11.10;5.33;;;;;;;6.06;64.80;99536.41;10253690;29;20192;-73
2022/03/30 20:03:28;;;;;;;9.17;4.77;;;;;;;6.06;65.57;99527.84;10254295;29;20232;-72
2022/03/30 20:08:31;;;;;;;11.37;5.57;;;;;;;6.14;65.39;99539.81;10253434;29;20195;-69
2022/03/30 20:13:37;;;;;;;12.23;5.40;;;;;;;6.06;66.01;99538.13;10252782;29;20211;-71
2022/03/30 20:18:40;;;;;;;13.33;6.00;;;;;;;5.79;65.94;99537.38;10252998;28;20331;-72
2022/03/30 20:23:44;;;;;;;12.37;5.93;;;;;;;5.57;66.76;99534.88;10250297;29;20665;-70
2022/03/30 20:28:50;;;;;;;16.03;6.33;;;;;;;5.73;66.84;99539.94;10255014;28;20590;-69
2022/03/30 20:33:55;;;;;;;13.67;6.07;;;;;;;5.72;67.25;99535.69;10253167;29;20669;-70
2022/03/30 20:38:58;;;;;;;12.57;5.00;;;;;;;5.60;67.45;99542.59;10252846;28;20219;-71
2022/03/30 20:44:19;;;;;;;10.73;5.67;;;;;;;5.44;67.46;99546.06;10252191;29;20212;-68
2022/03/30 20:49:22;;;;;;;13.30;5.17;;;;;;;5.54;67.26;99550.34;10252349;29;20306;-72
2022/03/30 20:54:26;;;;;;;10.30;5.20;;;;;;;5.41;67.41;99546.94;10255835;29;20227;-72
2022/03/30 20:59:30;;;;;;;12.23;5.40;;;;;;;5.36;68.31;99543.53;10253400;29;20278;-67
2022/03/30 21:04:34;;;;;;;9.50;5.03;;;;;;;5.23;68.85;99541.00;10253311;29;20387;-72
2022/03/30 21:09:38;;;;;;;10.77;5.30;;;;;;;5.29;68.54;99535.81;10253608;28;20216;-72
2022/03/30 21:14:42;;;;;;;13.40;4.93;;;;;;;5.18;68.64;99545.25;10252516;28;20231;-70
2022/03/30 21:19:46;;;;;;;12.17;5.53;;;;;;;5.23;69.02;99536.69;10252395;29;20220;-67
2022/03/30 21:24:49;;;;;;;9.83;5.17;;;;;;;5.32;68.76;99552.09;10254621;28;20283;-68
2022/03/30 21:29:54;;;;;;;9.57;5.20;;;;;;;5.20;68.39;99554.69;10258103;28;20231;-69
2022/03/30 21:34:57;;;;;;;12.50;5.33;;;;;;;5.12;69.16;99551.28;10259595;28;20677;-70
2022/03/30 21:40:00;;;;;;;10.53;5.03;;;;;;;5.04;68.88;99549.59;10259699;28;20216;-71
2022/03/30 21:45:06;;;;;;;11.63;5.20;;;;;;;4.97;68.41;99548.72;10259352;29;20709;-68
2022/03/30 21:50:11;;;;;;;12.87;5.57;;;;;;;4.93;69.05;99549.59;10261480;29;20228;-67
2022/03/30 21:55:15;;;;;;;10.53;5.27;;;;;;;5.06;69.57;99558.13;10259731;29;20255;-70
2022/03/30 22:00:24;;;;;;;15.03;5.77;;;;;;;4.91;69.80;99555.59;10259290;28;20728;-70
2022/03/30 22:05:27;;;;;;;10.47;5.17;;;;;;;4.93;71.02;99554.75;10258833;29;20561;-71
2022/03/30 22:10:31;;;;;;;13.67;5.67;;;;;;;4.79;72.20;99560.72;10258451;28;20216;-69
2022/03/30 22:15:36;;;;;;;12.73;5.40;;;;;;;4.56;75.47;99563.28;10259201;28;20310;-68
2022/03/30 22:20:41;;;;;;;11.43;6.33;;;;;;;4.46;77.42;99559.84;10260200;28;20665;-67
2022/03/30 22:25:44;;;;;;;12.23;5.40;;;;;;;4.33;79.92;99558.09;10257075;29;20243;-70
2022/03/30 22:30:49;;;;;;;13.20;6.63;;;;;;;4.08;82.91;99558.91;10257688;28;20216;-69
2022/03/30 22:35:52;;;;;;;13.30;6.53;;;;;;;3.97;87.32;99554.63;10217984;29;20221;-68
2022/03/30 22:40:58;;;;;;;11.97;6.83;;;;;;;3.91;88.08;99555.44;10217576;29;20300;-71
2022/03/30 22:46:02;;;;;;;11.27;6.67;;;;;;;3.96;90.94;99561.44;10219525;29;20233;-70
2022/03/30 22:51:06;;;;;;;12.10;6.17;;;;;;;3.89;92.36;99552.00;10252639;29;20298;-69
2022/03/30 22:56:10;;;;;;;13.47;6.47;;;;;;;3.62;93.49;99551.91;10258478;28;20239;-71
2022/03/30 23:01:14;;;;;;;11.07;6.20;;;;;;;3.56;95.72;99551.88;10260099;29;20307;-70
2022/03/30 23:11:42;;;;;;;14.53;6.60;;;;;;;3.39;99.84;99550.94;10259909;28;20228;-69
2022/03/30 23:16:46;;;;;;;11.40;6.23;;;;;;;3.35;100.00;99546.63;10260286;28;20251;-70
2022/03/30 23:21:50;;;;;;;12.40;6.53;;;;;;;3.41;100.00;99544.09;10261682;29;20216;-71
2022/03/30 23:26:55;;;;;;;14.23;6.83;;;;;;;3.34;100.00;99540.66;10259670;28;20236;-69
2022/03/30 23:32:00;;;;;;;12.63;6.53;;;;;;;3.18;100.00;99543.97;10259292;28;20227;-69
2022/03/30 23:37:04;;;;;;;12.67;6.17;;;;;;;3.03;100.00;99543.88;10258965;29;20220;-70
2022/03/30 23:42:10;;;;;;;10.73;6.03;;;;;;;3.06;100.00;99535.34;10259191;29;20234;-70
2022/03/30 23:47:14;;;;;;;14.17;6.47;;;;;;;3.07;100.00;99531.94;10260224;29;20285;-70